Institutional Ownership


This table shows recent investment for the industry. A lot of people consider institutional money to be "smart money" since they tend to be well-informed and have dedicated research teams. So, tracking the filings of institutions can be considered a proxy for institutional sentiment. If you see a number of institutions accumulating shares, for example, that might be considered a positive signal.

File DateEffective DateFormInvestorTargetPrev SharesSharesChange
(Percent)
2018-08-17 2018-06-30 13F-HR Matarin Capital Management, LLC LXP / Lexington Corporate Properties Trust 73,636 0 -100.00
2018-08-17 2018-06-30 13F-HR Matarin Capital Management, LLC HT / Hersha Hospitality Trust 707,356 736,266 4.09
2018-08-17 2018-06-30 13F-HR Matarin Capital Management, LLC PEB / Pebblebrook Hotel Trust 136,275 133,865 -1.77
2018-08-17 2018-06-30 13F-HR Andra AP-fonden SLG / SL Green Realty 47,500 51,600 8.63
2018-08-17 2018-06-30 13F-HR Matarin Capital Management, LLC OLP / One Liberty Properties 14,154 0 -100.00
2018-08-17 2018-06-30 13F-HR Matarin Capital Management, LLC AHT / Ashford Hospitality Trust 920,933 934,385 1.46
2018-08-17 2018-06-30 13F-HR Andra AP-fonden NNN / National Retail Properties 138,600 128,600 -7.22
2018-08-17 2018-06-30 13F-HR Andra AP-fonden O / Realty Income 93,900 75,600 -19.49
2018-08-17 2018-06-30 13F-HR Andra AP-fonden DLR / Digital Realty Trust 56,300 38,400 -31.79
2018-08-17 2018-06-30 13F-HR/A NOMURA HOLDINGS INC STWD / Starwood Property Trust 551,636 561,746 1.83
2018-08-17 2018-06-30 13F-HR/A NOMURA HOLDINGS INC ESS / Essex Property Trust 8,469 0 -100.00
2018-08-17 2018-06-30 13F-HR Matarin Capital Management, LLC NXRT / NexPoint Residential Trust 51,348 46,644 -9.16
2018-08-17 2018-06-30 13F-HR Matarin Capital Management, LLC DRH / Diamond Rock Hospitality Co. 306,834 0 -100.00
2018-08-17 2018-06-30 13F-HR/A NOMURA HOLDINGS INC GGP / General Growth Properties 49,582 81,230 63.83
2018-08-17 2018-06-30 13F-HR Andra AP-fonden VNO / Vornado Realty Trust 77,400 69,700 -9.95
2018-08-17 2018-06-30 13F-HR/A NOMURA HOLDINGS INC EPR / EPR Properties 2,800 0 -100.00
2018-08-17 2018-06-30 13F-HR/A NOMURA HOLDINGS INC O / Realty Income 22,267 0 -100.00
2018-08-17 2018-06-30 13F-HR/A NOMURA HOLDINGS INC EQR / Equity Residential 44,172 0 -100.00
2018-08-17 2018-06-30 13F-HR/A NOMURA HOLDINGS INC EXR / Extra Space Storage 9,923 0 -100.00
2018-08-17 2018-06-30 13F-HR/A NOMURA HOLDINGS INC MAC / Macerich Company 8,447 0 -100.00
2018-08-17 2018-06-30 13F-HR/A NOMURA HOLDINGS INC FRT / Federal Realty Investment Trust 17,502 12,544 -28.33
2018-08-17 2018-06-30 13F-HR Matarin Capital Management, LLC FSP / Franklin Street Properties 535,936 516,740 -3.58
2018-08-17 2018-06-30 13F-HR/A NOMURA HOLDINGS INC AMT / American Tower 34,559 102,124 195.51
2018-08-17 2018-06-30 13F-HR Andra AP-fonden KIM / Kimco Realty 406,500 477,700 17.52
2018-08-17 2018-06-30 13F-HR/A NOMURA HOLDINGS INC AVB / AvalonBay Communities 15,935 0 -100.00
2018-08-17 2018-06-30 13F-HR Andra AP-fonden NLY / Annaly Capital Management 869,200 994,300 14.39
2018-08-17 2018-06-30 13F-HR/A NOMURA HOLDINGS INC ESRT / Empire State Realty Trust 30,700 0 -100.00
2018-08-17 2018-06-30 13F-HR Andra AP-fonden BXP / Boston Properties 45,000 53,900 19.78
2018-08-17 2018-06-30 13F-HR Matarin Capital Management, LLC HIFR / InfraREIT 13,860 13,860 0.00
2018-08-17 2018-06-30 13F-HR Andra AP-fonden SPG / Simon Property Group 51,400 39,800 -22.57
2018-08-17 2018-06-30 13F-HR Andra AP-fonden ARE / Alexandria Real Estate Equities 34,000 33,400 -1.76
2018-08-17 2018-06-30 13F-HR/A NOMURA HOLDINGS INC VNO / Vornado Realty Trust 13,549 0 -100.00
2018-08-17 2018-06-30 13F-HR Andra AP-fonden CPT / Camden Property Trust 53,500 66,900 25.05
2018-08-17 2018-06-30 13F-HR Andra AP-fonden DRE / Duke Realty 210,600 190,000 -9.78
2018-08-17 2018-06-30 13F-HR/A NOMURA HOLDINGS INC AMT / American Tower 0 90,000
2018-08-17 2018-06-30 13F-HR Andra AP-fonden IRM / Iron Mountain Incorporated. 139,800 125,300 -10.37
2018-08-17 2018-06-30 13F-HR Matarin Capital Management, LLC SIR / Select Income REIT 40,701 40,386 -0.77
2018-08-17 2018-06-30 13F-HR Andra AP-fonden LPT / Liberty Property Trust 149,700 175,100 16.97
2018-08-17 2018-06-30 13F-HR Andra AP-fonden PLD / Prologis 141,400 137,400 -2.83
2018-08-17 2018-06-30 13F-HR Andra AP-fonden EXR / Extra Space Storage 58,700 50,500 -13.97
2018-08-17 2018-06-30 13F-HR/A NOMURA HOLDINGS INC OHI / Omega HealthCare Investors 12,647 0 -100.00
2018-08-17 2018-06-30 13F-HR Andra AP-fonden MAC / Macerich Company 74,900 61,300 -18.16
2018-08-17 2018-06-30 13F-HR/A NOMURA HOLDINGS INC PSA / Public Storage 11,770 0 -100.00
2018-08-17 2018-06-30 13F-HR Matarin Capital Management, LLC BRT / BRT Realty Trust 11,494
2018-08-17 2018-06-30 13F-HR Andra AP-fonden CCI / Crown Castle International 34,700 43,100 24.21
2018-08-17 2018-06-30 13F-HR/A NOMURA HOLDINGS INC CCI / Crown Castle International 32,545 91,993 182.66
2018-08-17 2018-06-30 13F-HR/A NOMURA HOLDINGS INC UDR / UDR 44,213 0 -100.00
2018-08-17 2018-06-30 13F-HR Matarin Capital Management, LLC CTT / CatchMark Timber Trust 241,339 234,439 -2.86
2018-08-17 2018-06-30 13F-HR/A NOMURA HOLDINGS INC EQIX / Equinix 20,000 0 -100.00
2018-08-17 2018-06-30 13F-HR/A NOMURA HOLDINGS INC HCP / HCP 44,600 0 -100.00
2018-08-17 2018-06-30 13F-HR/A NOMURA HOLDINGS INC HHC / Howard Hughes 1,521,002 1,501,708 -1.27
2018-08-17 2018-06-30 13F-HR Andra AP-fonden AVB / AvalonBay Communities 36,000 34,000 -5.56
2018-08-17 2018-06-30 13F-HR Andra AP-fonden GGP / General Growth Properties 259,100 261,900 1.08
2018-08-17 2018-06-30 13F-HR/A NOMURA HOLDINGS INC SPG / Simon Property Group 3,100 0 -100.00
2018-08-17 2018-06-30 13F-HR/A NOMURA HOLDINGS INC NRE / NorthStar Realty Europe 581,400
2018-08-17 2018-06-30 13F-HR/A NOMURA HOLDINGS INC TWO / Two Harbors Investment 120,200 320,200 166.39
2018-08-17 2018-06-30 13F-HR/A NOMURA HOLDINGS INC ACRE / Ares Commercial Real Estate 463,756 462,633 -0.24
2018-08-17 2018-06-30 13F-HR/A NOMURA HOLDINGS INC GGP / General Growth Properties 157,500 110,000 -30.16
2018-08-17 2018-06-30 13F-HR Matarin Capital Management, LLC CIM / Chimera Investment 221,662 217,714 -1.78
2018-08-17 2018-06-30 13F-HR/A NOMURA HOLDINGS INC VER / VEREIT 59,856 59,856 0.00
2018-08-17 2018-06-30 13F-HR Andra AP-fonden VER / VEREIT 772,800 810,400 4.87
2018-08-17 2018-06-30 13F-HR Andra AP-fonden AGNC / AGNC Investment 479,100 521,600 8.87
2018-08-17 2018-06-30 13F-HR/A NOMURA HOLDINGS INC SPG / Simon Property Group 25,906 3,987 -84.61
2018-08-17 2018-06-30 13F-HR/A NOMURA HOLDINGS INC GGP / General Growth Properties 162,500
2018-08-17 2018-06-30 13F-HR/A NOMURA HOLDINGS INC ARE / Alexandria Real Estate Equities 14,499 0 -100.00
2018-08-17 2018-06-30 13F-HR Andra AP-fonden ESS / Essex Property Trust 17,600 18,000 2.27
2018-08-17 2018-06-30 13F-HR/A NOMURA HOLDINGS INC TCO / Taubman Centers 37,500 0 -100.00
2018-08-17 2018-06-30 13F-HR/A NOMURA HOLDINGS INC EQIX / Equinix 8,745 0 -100.00
2018-08-17 2018-06-30 13F-HR/A NOMURA HOLDINGS INC AIV / Apartment Investment & Management Co. 31,599 0 -100.00
2018-08-17 2018-06-30 13F-HR/A NOMURA HOLDINGS INC VTR / Ventas 27,886 0 -100.00
2018-08-17 2018-06-30 13F-HR/A NOMURA HOLDINGS INC DRE / Duke Realty 61,761 0 -100.00
2018-08-17 2018-06-30 13F-HR/A NOMURA HOLDINGS INC HST / Host Hotels & Resorts 82,604 3,562 -95.69
2018-08-17 2018-06-30 13F-HR/A NOMURA HOLDINGS INC AMT / American Tower 56,500 0 -100.00
2018-08-17 2018-06-30 13F-HR Andra AP-fonden AMT / American Tower 41,200 34,000 -17.48
2018-08-17 2018-06-30 13F-HR/A NOMURA HOLDINGS INC IRM / Iron Mountain Incorporated. 22,091 0 -100.00
2018-08-17 2018-06-30 13F-HR Andra AP-fonden UDR / UDR 137,500 118,100 -14.11
2018-08-17 2018-06-30 13F-HR Andra AP-fonden BRX / Brixmor Property Group 291,600 0 -100.00
2018-08-17 2018-06-30 13F-HR/A NOMURA HOLDINGS INC BXMT / Blackstone Mortgage Trust 233,783 147,281 -37.00
2018-08-17 2018-06-30 13F-HR/A NOMURA HOLDINGS INC HCN / Welltower 42,594 0 -100.00
2018-08-17 2018-06-30 13F-HR Andra AP-fonden EQR / Equity Residential 104,200 91,600 -12.09
2018-08-17 2018-06-30 13F-HR/A NOMURA HOLDINGS INC BXP / Boston Properties 31,066 0 -100.00
2018-08-17 2018-06-30 13F-HR/A NOMURA HOLDINGS INC PLD / Prologis 44,157 8,207 -81.41
2018-08-17 2018-06-30 13F-HR/A NOMURA HOLDINGS INC WY / Weyerhaeuser Co. 59,234 0 -100.00
2018-08-17 2018-06-30 13F-HR Andra AP-fonden PSA / Public Storage 27,700 21,300 -23.10
2018-08-17 2018-06-30 13F-HR Andra AP-fonden WY / Weyerhaeuser Co. 190,700 184,000 -3.51
2018-08-17 2018-06-30 13F-HR Andra AP-fonden REG / Regency Centers 58,900 86,400 46.69
2018-08-17 2018-06-30 13F-HR/A NOMURA HOLDINGS INC REG / Regency Centers 11,645 0 -100.00
2018-08-17 2018-06-30 13F-HR Andra AP-fonden FRT / Federal Realty Investment Trust 34,500 42,700 23.77
2018-08-17 2018-06-30 13F-HR Andra AP-fonden MAA / Mid-America Apartment Communities 77,400 79,100 2.20
2018-08-17 2018-06-30 13F-HR Matarin Capital Management, LLC CHSP / Chesapeake Lodging Trust 515,572 468,930 -9.05
2018-08-17 2018-06-30 13F-HR/A NOMURA HOLDINGS INC DLR / Digital Realty Trust 16,481 0 -100.00
2018-08-17 2018-06-30 13F-HR/A NOMURA HOLDINGS INC SLG / SL Green Realty 7,092 0 -100.00
2018-08-17 2018-06-30 13F-HR/A NOMURA HOLDINGS INC MAA / Mid-America Apartment Communities 17,056 0 -100.00
2018-08-17 2018-06-30 13F-HR/A NOMURA HOLDINGS INC LAMR / Lamar Advertising Co. REIT 220,000 0 -100.00
2018-08-17 2018-06-30 13F-HR Andra AP-fonden HCN / Welltower 133,000 96,800 -27.22
2018-08-17 2018-06-30 13F-HR/A NOMURA HOLDINGS INC BRX / Brixmor Property Group 0 62,000
2018-08-17 2018-06-30 13F-HR Andra AP-fonden EQIX / Equinix 5,600 4,400 -21.43
2018-08-17 2018-06-30 13F-HR/A NOMURA HOLDINGS INC ARI / Apollo Commercial Real Estate Finance 531,068 545,024 2.63
2018-08-17 2018-06-30 13F-HR Matarin Capital Management, LLC AMT / American Tower 23,138 6,633 -71.33
2018-08-17 2018-06-30 13F-HR Andra AP-fonden HST / Host Hotels & Resorts 401,600 307,600 -23.41
2018-08-17 2018-06-30 13F-HR/A NOMURA HOLDINGS INC HST / Host Hotels & Resorts 0 25,000
2018-08-17 2018-06-30 13F-HR Andra AP-fonden HCP / HCP 257,500 208,800 -18.91
2018-08-17 2018-06-30 13F-HR Andra AP-fonden VTR / Ventas 133,800 119,100 -10.99
2018-08-17 2018-06-30 13F-HR/A NOMURA HOLDINGS INC KIM / Kimco Realty 33,379 0 -100.00
2018-08-16 2018-06-30 13F-HR/A SCHRODER INVESTMENT MANAGEMENT GROUP RPT / Ramco-Gershenson Properties Trust 141,780 138,581 -2.26
2018-08-16 2018-06-30 13F-HR Nelson, Van Denburg & Campbell Wealth Management Group, LLC HCN / Welltower 31 27 -12.90
2018-08-16 2018-06-30 13F-HR/A Senator Investment Group LP FCE.A / Forest City Realty Trust 4,750,000 0 -100.00
2018-08-16 2018-06-30 13F-HR/A SCHRODER INVESTMENT MANAGEMENT GROUP HCN / Welltower 343,302 77,465 -77.44
2018-08-16 2018-08-16 N-Q Weitz Funds EQC / Equity Commonwealth
2018-08-16 2018-06-30 13F-HR HOLDERNESS INVESTMENTS CO HCN / Welltower 5,120 5,175 1.07
2018-08-16 2018-06-30 13F-HR/A SCHRODER INVESTMENT MANAGEMENT GROUP FCE.A / Forest City Realty Trust 32,116 32,116 0.00
2018-08-16 2018-06-30 13F-HR Nelson, Van Denburg & Campbell Wealth Management Group, LLC EQR / Equity Residential 11 0 -100.00
2018-08-16 2018-06-30 13F-HR Global X Management CO LLC MPW / Medical Properties Trust 949,913 999,855 5.26
2018-08-16 2018-06-30 13F-HR/A SCHRODER INVESTMENT MANAGEMENT GROUP EQR / Equity Residential 44,323 44,115 -0.47
2018-08-16 2018-08-16 N-Q Dreyfus Investment Funds DOC / Physicians Realty Trust
2018-08-16 2018-06-30 13F-HR/A SCHRODER INVESTMENT MANAGEMENT GROUP LAMR / Lamar Advertising Co. REIT 1,122,251 3,525,888 214.18
2018-08-16 2018-06-30 13F-HR/A Private Wealth Partners, LLC EQC / Equity Commonwealth 43,900 34,800 -20.73
2018-08-16 2018-06-30 13F-HR Global X Management CO LLC HCN / Welltower 9,278 11,811 27.30
2018-08-16 2018-06-30 13F-HR M Holdings Securities, Inc. HCN / Welltower 4,105 0 -100.00
2018-08-16 2018-06-30 13F-HR Feltz WealthPLAN Inc. LAMR / Lamar Advertising Co. REIT 5,730 5,970 4.19
2018-08-16 2018-06-30 13F-HR Feltz WealthPLAN Inc. HCN / Welltower 5,490 5,265 -4.10
2018-08-16 2018-06-30 13F-HR/A BANK OF NOVA SCOTIA HCN / Welltower 125,252 40,731 -67.48
2018-08-16 2018-06-30 13F-HR Amussen Hunsaker & Associates Llc HCN / Welltower 1,172
2018-08-16 2018-06-30 13F-HR Global X Management CO LLC LXP / Lexington Corporate Properties Trust 1,427,462 1,503,282 5.31
2018-08-16 2018-06-30 13F-HR Global X Management CO LLC EQR / Equity Residential 12,494 17,682 41.52
2018-08-16 2018-06-30 13F-HR/A BANK OF NOVA SCOTIA EQR / Equity Residential 147,167 40,113 -72.74
2018-08-16 2018-06-30 13F-HR/A SCHRODER INVESTMENT MANAGEMENT GROUP BXP / Boston Properties 20,766 21,581 3.92
2018-08-16 2018-06-30 13F-HR/A BANK OF NOVA SCOTIA PLD / Prologis 14,137 14,407 1.91
2018-08-16 2018-06-30 13F-HR Nelson, Van Denburg & Campbell Wealth Management Group, LLC BXP / Boston Properties 2 0 -100.00
2018-08-16 2018-06-30 13F-HR Global X Management CO LLC PLD / Prologis 7,837 12,806 63.40
2018-08-16 2018-06-30 13F-HR Nelson, Van Denburg & Campbell Wealth Management Group, LLC DOC / Physicians Realty Trust 11,243 12,965 15.32
2018-08-16 2018-06-30 13F-HR/A BANK OF NOVA SCOTIA WY / Weyerhaeuser Co. 96,261 82,878 -13.90
2018-08-16 2018-06-30 13F-HR/A SCHRODER INVESTMENT MANAGEMENT GROUP LPT / Liberty Property Trust 17,323 17,323 0.00
2018-08-16 2018-06-30 13F-HR/A COWEN GROUP, INC. FCE.A / Forest City Realty Trust 123,110
2018-08-16 2018-06-30 13F-HR/A SCHRODER INVESTMENT MANAGEMENT GROUP UBA / Urstadt Biddle Properties 4,371 4,371 0.00
2018-08-16 2018-06-30 13F-HR/A COWEN GROUP, INC. DCT / DCT Industrial Trust 893,976
2018-08-16 2018-06-30 13F-HR/A SCHRODER INVESTMENT MANAGEMENT GROUP WY / Weyerhaeuser Co. 200,650 212,487 5.90
2018-08-16 2018-06-30 13F-HR/A SCHRODER INVESTMENT MANAGEMENT GROUP ACC / American Campus Communities 16,387 16,387 0.00
2018-08-16 2018-06-30 13F-HR Global X Management CO LLC KRG / Kite Realty Group Trust 641,476 639,252 -0.35
2018-08-16 2018-06-30 13F-HR MAI Capital Management ACC / American Campus Communities 6,805 6,630 -2.57
2018-08-16 2018-06-30 13F-HR Carnegie Capital Asset Management, LLC WY / Weyerhaeuser Co. 7,598 7,698 1.32
2018-08-16 2018-06-30 13F-HR Global X Management CO LLC EXR / Extra Space Storage 3,893 846 -78.27
2018-08-16 2018-06-30 13F-HR HOLDERNESS INVESTMENTS CO DLR / Digital Realty Trust 2,550 2,550 0.00
2018-08-16 2018-08-16 N-Q Dreyfus Investment Funds ADC / Agree Realty
2018-08-16 2018-06-30 13F-HR Global X Management CO LLC ABR / Arbor Realty Trust 1,129,331 1,139,640 0.91
2018-08-16 2018-06-30 13F-HR/A SCHRODER INVESTMENT MANAGEMENT GROUP DEI / Douglas Emmett 1,584,141 453,704 -71.36
2018-08-16 2018-06-30 13F-HR/A SCHRODER INVESTMENT MANAGEMENT GROUP DLR / Digital Realty Trust 24,485 24,485 0.00
2018-08-16 2018-06-30 13F-HR/A SCHRODER INVESTMENT MANAGEMENT GROUP EXR / Extra Space Storage 174,950 52,307 -70.10
2018-08-16 2018-06-30 13F-HR MAI Capital Management WY / Weyerhaeuser Co. 186,697 189,896 1.71
2018-08-16 2018-06-30 13F-HR MAI Capital Management PSA / Public Storage 932
2018-08-16 2018-06-30 13F-HR/A SCHRODER INVESTMENT MANAGEMENT GROUP PSA / Public Storage 53,252 55,767 4.72
2018-08-16 2018-06-30 13F-HR Nelson, Van Denburg & Campbell Wealth Management Group, LLC PSA / Public Storage 144 142 -1.39
2018-08-16 2018-06-30 13F-HR Nelson, Van Denburg & Campbell Wealth Management Group, LLC GNL / Global Net Lease 1,517 0 -100.00
2018-08-16 2018-06-30 13F-HR Global X Management CO LLC GNL / Global Net Lease 718,705 748,097 4.09
2018-08-16 2018-06-30 13F-HR Global X Management CO LLC PSA / Public Storage 1,463 1,001 -31.58
2018-08-16 2018-06-30 13F-HR/A BANK OF NOVA SCOTIA PSA / Public Storage 21,629 18,866 -12.77
2018-08-16 2018-08-16 N-Q Dreyfus Investment Funds OUT / OUTFRONT Media
2018-08-16 2018-06-30 13F-HR/A SCHRODER INVESTMENT MANAGEMENT GROUP MITT / AG Mortgage Investment Trust 2,600 2,600 0.00
2018-08-16 2018-06-30 13F-HR Global X Management CO LLC IRT / Independence Realty Trust 1,390,052 1,449,024 4.24
2018-08-16 2018-06-30 13F-HR/A SCHRODER INVESTMENT MANAGEMENT GROUP AMH / American Homes 4 Rent 27,667 27,667 0.00
2018-08-16 2018-06-30 13F-HR Global X Management CO LLC WPG / WP Glimcher 1,577,327 1,572,571 -0.30
2018-08-16 2018-06-30 13F-HR/A PRIVATE MANAGEMENT GROUP INC WPG / WP Glimcher 5,017,550 5,040,381 0.46
2018-08-16 2018-06-30 13F-HR Nelson, Van Denburg & Campbell Wealth Management Group, LLC AMH / American Homes 4 Rent 439 440 0.23
2018-08-16 2018-06-30 13F-HR Global X Management CO LLC PMT / Penny Mac Mortgage Investment Trust 1,018,572 1,021,366 0.27
2018-08-16 2018-06-30 13F-HR Gifford Fong Associates PSA / Public Storage 5,000
2018-08-16 2018-06-30 13F-HR Global X Management CO LLC SNR / New Senior Investment Group 1,397,236 1,392,601 -0.33
2018-08-16 2018-06-30 13F-HR Nelson, Van Denburg & Campbell Wealth Management Group, LLC OHI / Omega HealthCare Investors 50 50 0.00
2018-08-16 2018-08-16 N-Q Dreyfus Investment Funds MNR / Monmouth Real Estate Investment
2018-08-16 2018-06-30 13F-HR Laffer Investments OHI / Omega HealthCare Investors 18,977 0 -100.00
2018-08-16 2018-06-30 13F-HR/A SCHRODER INVESTMENT MANAGEMENT GROUP REG / Regency Centers 17,842 17,842 0.00
2018-08-16 2018-06-30 13F-HR/A SCHRODER INVESTMENT MANAGEMENT GROUP CXW / CoreCivic 21,354 21,354 0.00
2018-08-16 2018-06-30 13F-HR/A BANK OF NOVA SCOTIA REG / Regency Centers 18,906 16,366 -13.43
2018-08-16 2018-06-30 13F-HR Global X Management CO LLC NHI / National Health Investors 415 569 37.11
2018-08-16 2018-06-30 13F-HR Nelson, Van Denburg & Campbell Wealth Management Group, LLC MAC / Macerich Company 7 0 -100.00
2018-08-16 2018-06-30 13F-HR/A BANK OF NOVA SCOTIA FRT / Federal Realty Investment Trust 9,223 8,029 -12.95
2018-08-16 2018-06-30 13F-HR/A SCHRODER INVESTMENT MANAGEMENT GROUP MAC / Macerich Company 13,229 13,229 0.00
2018-08-16 2018-06-30 13F-HR/A BANK OF NOVA SCOTIA MAC / Macerich Company 10,940 8,970 -18.01
2018-08-16 2018-06-30 13F-HR Feltz WealthPLAN Inc. MAA / Mid-America Apartment Communities 3,932 4,022 2.29
2018-08-16 2018-06-30 13F-HR/A BANK OF NOVA SCOTIA MAA / Mid-America Apartment Communities 14,369 12,309 -14.34
2018-08-16 2018-06-30 13F-HR Nelson, Van Denburg & Campbell Wealth Management Group, LLC MAA / Mid-America Apartment Communities 7 0 -100.00
2018-08-16 2018-06-30 13F-HR/A SCHRODER INVESTMENT MANAGEMENT GROUP MNR / Monmouth Real Estate Investment 11,244 11,244 0.00
2018-08-16 2018-06-30 13F-HR Nelson, Van Denburg & Campbell Wealth Management Group, LLC FRT / Federal Realty Investment Trust 5 0 -100.00
2018-08-16 2018-06-30 13F-HR Nelson, Van Denburg & Campbell Wealth Management Group, LLC REG / Regency Centers 9 0 -100.00
2018-08-16 2018-06-30 13F-HR MAI Capital Management MAA / Mid-America Apartment Communities 2,260 2,260 0.00
2018-08-16 2018-06-30 13F-HR Global X Management CO LLC OHI / Omega HealthCare Investors 372,009 370,568 -0.39
2018-08-16 2018-06-30 13F-HR/A SCHRODER INVESTMENT MANAGEMENT GROUP OHI / Omega HealthCare Investors 33,876 33,051 -2.44
2018-08-16 2018-06-30 13F-HR Global X Management CO LLC CXW / CoreCivic 0 408,255
2018-08-16 2018-06-30 13F-HR Global X Management CO LLC MAC / Macerich Company 6,595 4,244 -35.65
2018-08-16 2018-06-30 13F-HR/A SCHRODER INVESTMENT MANAGEMENT GROUP WPG / WP Glimcher 179,633 173,849 -3.22
2018-08-16 2018-06-30 13F-HR Nelson, Van Denburg & Campbell Wealth Management Group, LLC WPG / WP Glimcher 103 103 0.00
2018-08-16 2018-06-30 13F-HR Global X Management CO LLC AMH / American Homes 4 Rent 1,442 2,287 58.60
2018-08-16 2018-06-30 13F-HR/A SCHRODER INVESTMENT MANAGEMENT GROUP CONE / CyrusOne 11,335 11,335 0.00
2018-08-16 2018-06-30 13F-HR Global X Management CO LLC GEO / Geo Group 452,267 451,650 -0.14
2018-08-16 2018-06-30 13F-HR/A SCHRODER INVESTMENT MANAGEMENT GROUP GEO / Geo Group 15,684 15,684 0.00
2018-08-16 2018-08-16 N-Q Dreyfus Investment Funds DLR^I / Digital Realty Trust
2018-08-16 2018-06-30 13F-HR/A SCHRODER INVESTMENT MANAGEMENT GROUP STOR / STORE Capital 20,286 20,286 0.00
2018-08-16 2018-08-16 N-Q Weitz Funds STOR / STORE Capital
2018-08-16 2018-06-30 13F-HR M Holdings Securities, Inc. GNL / Global Net Lease 54,892 55,718 1.50
2018-08-16 2018-06-30 13F-HR/A SCHRODER INVESTMENT MANAGEMENT GROUP GNL / Global Net Lease 8,779 8,779 0.00
2018-08-16 2018-06-30 13F-HR Global X Management CO LLC REG / Regency Centers 3,327 983 -70.45
2018-08-16 2018-06-30 13F-HR/A SCHRODER INVESTMENT MANAGEMENT GROUP NHI / National Health Investors 5,095 5,095 0.00
2018-08-16 2018-06-30 13F-HR/A SCHRODER INVESTMENT MANAGEMENT GROUP CHSP / Chesapeake Lodging Trust 40,667 40,667 0.00
2018-08-16 2018-06-30 13F-HR/A Private Wealth Partners, LLC PSA / Public Storage 1,060 1,060 0.00
2018-08-16 2018-06-30 13F-HR Global X Management CO LLC FRT / Federal Realty Investment Trust 1,763 470 -73.34
2018-08-16 2018-06-30 13F-HR/A SCHRODER INVESTMENT MANAGEMENT GROUP ADC / Agree Realty 3,744 3,744 0.00
2018-08-16 2018-08-16 SC 13D/A TIPTREE FINANCIAL INC. RFT / RAIT Financial Trust 133,127
2018-08-16 2018-06-30 13F-HR Global X Management CO LLC DLR / Digital Realty Trust 5,954 1,357 -77.21
2018-08-16 2018-06-30 13F-HR/A BANK OF NOVA SCOTIA SLG / SL Green Realty 11,636 9,619 -17.33
2018-08-16 2018-06-30 13F-HR Global X Management CO LLC MAA / Mid-America Apartment Communities 3,900 2,237 -42.64
2018-08-16 2018-06-30 13F-HR/A BANK OF NOVA SCOTIA DLR / Digital Realty Trust 26,240 66,479 153.35
2018-08-16 2018-08-16 N-Q Dreyfus Investment Funds DLR / Digital Realty Trust
2018-08-16 2018-06-30 13F-HR Global X Management CO LLC SLG / SL Green Realty 2,641 3,273 23.93
2018-08-16 2018-06-30 13F-HR/A BANK OF NOVA SCOTIA EXR / Extra Space Storage 58,811 13,896 -76.37
2018-08-16 2018-06-30 13F-HR/A SCHRODER INVESTMENT MANAGEMENT GROUP KRG / Kite Realty Group Trust 10,951 10,951 0.00
2018-08-16 2018-06-30 13F-HR Global X Management CO LLC ACC / American Campus Communities 4,335 5,762 32.92
2018-08-16 2018-06-30 13F-HR FAIRFIELD, BUSH & CO. UBA / Urstadt Biddle Properties 79,415 76,979 -3.07
2018-08-16 2018-06-30 13F-HR/A SCHRODER INVESTMENT MANAGEMENT GROUP DCT / DCT Industrial Trust 11,750 11,750 0.00
2018-08-16 2018-06-30 13F-HR/A BANK OF NOVA SCOTIA CCI / Crown Castle International 52,876 45,263 -14.40
2018-08-16 2018-06-30 13F-HR Global X Management CO LLC WY / Weyerhaeuser Co. 7,311 4,996 -31.66
2018-08-16 2018-06-30 13F-HR/A SCHRODER INVESTMENT MANAGEMENT GROUP FCPT / Four Corners Property Trust 8,066 8,066 0.00
2018-08-16 2018-06-30 13F-HR/A SCHRODER INVESTMENT MANAGEMENT GROUP CHCT / Community Healthcare Trust 61,376 59,939 -2.34
2018-08-16 2018-06-30 13F-HR Titus Wealth Management WY / Weyerhaeuser Co. 0 6,364
2018-08-16 2018-06-30 13F-HR Global X Management CO LLC ANH / Anworth Mortgage Asset 153,430 0 -100.00
2018-08-16 2018-06-30 13F-HR/A SCHRODER INVESTMENT MANAGEMENT GROUP PLD / Prologis 69,319 69,579 0.38
2018-08-16 2018-06-30 13F-HR/A SCHRODER INVESTMENT MANAGEMENT GROUP SLG / SL Green Realty 11,892 11,892 0.00
2018-08-16 2018-06-30 13F-HR Global X Management CO LLC BXP / Boston Properties 968 1,034 6.82
2018-08-16 2018-06-30 13F-HR/A Private Wealth Partners, LLC CCI / Crown Castle International 8,700 8,700 0.00
2018-08-16 2018-06-30 13F-HR/A BANK OF NOVA SCOTIA BXP / Boston Properties 19,686 16,871 -14.30
2018-08-16 2018-08-16 N-Q Weitz Funds BXP / Boston Properties
2018-08-16 2018-06-30 13F-HR Nelson, Van Denburg & Campbell Wealth Management Group, LLC CCI / Crown Castle International 42 33 -21.43
2018-08-16 2018-06-30 13F-HR/A SCHRODER INVESTMENT MANAGEMENT GROUP LXP / Lexington Corporate Properties Trust 163,518 160,170 -2.05
2018-08-16 2018-06-30 13F-HR Laffer Investments CCI / Crown Castle International 3,505 3,396 -3.11
2018-08-16 2018-06-30 13F-HR/A SCHRODER INVESTMENT MANAGEMENT GROUP HR / Healthcare Realty Trust 1,244,195 1,210,432 -2.71
2018-08-16 2018-06-30 13F-HR/A SCHRODER INVESTMENT MANAGEMENT GROUP MPW / Medical Properties Trust 245,991 241,082 -2.00
2018-08-16 2018-06-30 13F-HR Carnegie Capital Asset Management, LLC EQR / Equity Residential 3,600 3,400 -5.56
2018-08-16 2018-06-30 13F-HR M Holdings Securities, Inc. CCI / Crown Castle International 2,018
2018-08-16 2018-06-30 13F-HR Feltz WealthPLAN Inc. LPT / Liberty Property Trust 9,165 9,385 2.40
2018-08-16 2018-06-30 13F-HR/A SCHRODER INVESTMENT MANAGEMENT GROUP CDR / Cedar Realty Trust 13,398 13,398 0.00
2018-08-16 2018-06-30 13F-HR/A SCHRODER INVESTMENT MANAGEMENT GROUP EQC / Equity Commonwealth 14,707 14,707 0.00
2018-08-16 2018-06-30 13F-HR Global X Management CO LLC HCN.PRI / Welltower Inc. 6.50% Series I Cumul Convertible Perpetual Preferred Stock 2,733 0 -100.00
2018-08-16 2018-06-30 13F-HR Laffer Investments HCN.PRI / Welltower Inc. 6.50% Series I Cumul Convertible Perpetual Preferred Stock 38,014 34,663 -8.82
2018-08-16 2018-06-30 13F-HR Laffer Investments CCI / Crown Castle International 3,503 3,505 0.06
2018-08-16 2018-06-30 13F-HR/A BANK OF NOVA SCOTIA EQIX / Equinix 55,080 2,170 -96.06
2018-08-16 2018-06-30 13F-HR Global X Management CO LLC CCI / Crown Castle International 11,456 11,224 -2.03
2018-08-16 2018-06-30 13F-HR Carnegie Capital Asset Management, LLC HCN / Welltower 8,943 8,943 0.00
2018-08-16 2018-06-30 13F-HR/A SCHRODER INVESTMENT MANAGEMENT GROUP FRT / Federal Realty Investment Trust 188,521 131,792 -30.09
2018-08-16 2018-06-30 13F-HR/A SCHRODER INVESTMENT MANAGEMENT GROUP SSS / Sovran Self Storage 22,678 22,272 -1.79